createdAt,value
2023-03-23T00:00:07.523Z,22.29
2023-03-23T00:01:09.480Z,22.26
2023-03-23T00:02:07.633Z,22.28
2023-03-23T00:03:08.670Z,22.28
2023-03-23T00:04:08.722Z,22.28
2023-03-23T00:05:08.784Z,22.24
2023-03-23T00:06:08.857Z,22.24
2023-03-23T00:07:08.900Z,22.26
2023-03-23T00:08:08.932Z,22.28
2023-03-23T00:09:08.983Z,22.24
2023-03-23T00:10:08.039Z,22.23
2023-03-23T00:11:09.092Z,22.26
2023-03-23T00:12:08.148Z,22.26
2023-03-23T00:13:09.186Z,22.23
2023-03-23T00:14:09.246Z,22.24
2023-03-23T00:15:09.306Z,22.23
2023-03-23T00:16:09.372Z,22.24
2023-03-23T00:17:09.408Z,22.26
2023-03-23T00:18:09.459Z,22.24
2023-03-23T00:19:08.561Z,22.23
2023-03-23T00:20:09.573Z,22.22
2023-03-23T00:21:08.640Z,22.23
2023-03-23T00:22:09.716Z,22.26
2023-03-23T00:23:09.744Z,22.23
2023-03-23T00:24:08.844Z,22.22
2023-03-23T00:25:09.896Z,22.20
2023-03-23T00:26:09.921Z,22.24
2023-03-23T00:27:09.971Z,22.19
2023-03-23T00:28:10.017Z,22.19
2023-03-23T00:29:10.070Z,22.22
2023-03-23T00:30:09.140Z,22.20
2023-03-23T00:31:10.208Z,22.20
2023-03-23T00:32:09.248Z,22.20
2023-03-23T00:33:09.306Z,22.20
2023-03-23T00:34:10.379Z,22.19
2023-03-23T00:35:10.438Z,22.22
2023-03-23T00:36:09.493Z,22.20
2023-03-23T00:37:10.580Z,22.19
2023-03-23T00:38:09.645Z,22.20
2023-03-23T00:39:10.686Z,22.16
2023-03-23T00:40:10.738Z,22.19
2023-03-23T00:41:10.810Z,22.19
2023-03-23T00:42:09.856Z,22.19
2023-03-23T00:43:10.926Z,22.19
2023-03-23T00:44:10.984Z,22.17
2023-03-23T00:45:11.046Z,22.17
2023-03-23T00:46:10.117Z,22.17
2023-03-23T00:47:11.171Z,22.16
2023-03-23T00:48:11.228Z,22.17
2023-03-23T00:49:11.284Z,22.17
2023-03-23T00:50:10.345Z,22.17
2023-03-23T00:51:11.396Z,22.16
2023-03-23T00:52:10.461Z,22.12
2023-03-23T00:53:11.510Z,22.17
2023-03-23T00:54:10.595Z,22.15
2023-03-23T00:55:11.635Z,22.15
2023-03-23T00:56:11.693Z,22.16
2023-03-23T00:57:10.771Z,22.19
2023-03-23T00:58:11.846Z,22.16
2023-03-23T00:59:11.895Z,22.15
2023-03-23T01:00:11.955Z,22.15
2023-03-23T01:01:12.021Z,22.15
2023-03-23T01:02:11.085Z,22.13
2023-03-23T01:03:12.162Z,22.11
2023-03-23T01:04:12.217Z,22.13
2023-03-23T01:05:12.289Z,22.12
2023-03-23T01:06:11.791Z,22.12
2023-03-23T01:07:11.407Z,22.11
2023-03-23T01:08:12.486Z,22.12
2023-03-23T01:09:12.529Z,22.09
2023-03-23T01:10:12.653Z,22.11
2023-03-23T01:11:12.675Z,22.11
2023-03-23T01:12:12.738Z,22.12
2023-03-23T01:13:12.787Z,22.11
2023-03-23T01:14:12.849Z,22.12
2023-03-23T01:15:12.933Z,22.09
2023-03-23T01:16:11.957Z,22.11
2023-03-23T01:17:12.017Z,22.11
2023-03-23T01:18:13.081Z,22.11
2023-03-23T01:19:12.153Z,22.12
2023-03-23T01:20:12.202Z,22.11
2023-03-23T01:21:13.279Z,22.11
2023-03-23T01:22:13.325Z,22.09
2023-03-23T01:23:13.409Z,22.06
2023-03-23T01:24:13.449Z,22.11
2023-03-23T01:25:12.506Z,22.09
2023-03-23T01:26:13.604Z,22.09
2023-03-23T01:27:13.634Z,22.05
2023-03-23T01:28:13.695Z,22.08
2023-03-23T01:29:13.759Z,22.08
2023-03-23T01:30:13.814Z,22.11
2023-03-23T01:31:14.523Z,22.08
2023-03-23T01:32:12.929Z,22.06
2023-03-23T01:33:12.985Z,22.04
2023-03-23T01:34:13.046Z,22.06
2023-03-23T01:35:13.109Z,22.04
2023-03-23T01:36:13.190Z,22.06
2023-03-23T01:37:13.234Z,22.05
2023-03-23T01:38:14.307Z,22.06
2023-03-23T01:39:14.352Z,22.08
2023-03-23T01:40:14.403Z,22.06
2023-03-23T01:41:14.461Z,22.04
2023-03-23T01:42:14.549Z,22.05
2023-03-23T01:43:14.601Z,22.04
2023-03-23T01:44:14.676Z,22.05
2023-03-23T01:45:14.715Z,22.05
2023-03-23T01:46:14.779Z,22.02
2023-03-23T01:47:14.836Z,22.05
2023-03-23T01:48:14.911Z,22.05
2023-03-23T01:49:14.890Z,22.02
2023-03-23T01:50:14.874Z,22.01
2023-03-23T01:51:13.921Z,22.01
2023-03-23T01:52:14.861Z,22.01
2023-03-23T01:53:14.864Z,22.02
2023-03-23T01:54:14.844Z,22.01
2023-03-23T01:55:14.847Z,22.01
2023-03-23T01:56:14.855Z,22.01
2023-03-23T01:57:13.830Z,22.01
2023-03-23T01:58:14.841Z,22.04
2023-03-23T01:59:14.804Z,21.99
2023-03-23T02:00:14.805Z,22.01
2023-03-23T02:01:14.798Z,21.99
2023-03-23T02:02:15.068Z,22.02
2023-03-23T02:03:17.220Z,22.01
2023-03-23T02:04:14.811Z,21.98
2023-03-23T02:05:14.769Z,21.99
2023-03-23T02:06:14.772Z,22.01
2023-03-23T02:07:14.745Z,22.01
2023-03-23T02:08:13.748Z,21.98
2023-03-23T02:09:14.737Z,21.99
2023-03-23T02:10:14.742Z,21.96
2023-03-23T02:11:22.114Z,21.98
2023-03-23T02:12:14.762Z,21.98
2023-03-23T02:13:14.707Z,21.99
2023-03-23T02:14:15.337Z,21.98
2023-03-23T02:15:13.694Z,21.99
2023-03-23T02:16:14.764Z,21.98
2023-03-23T02:17:14.693Z,21.96
2023-03-23T02:18:14.686Z,21.98
2023-03-23T02:19:14.666Z,21.98
2023-03-23T02:20:14.654Z,21.95
2023-03-23T02:21:14.647Z,21.99
2023-03-23T02:22:14.639Z,21.96
2023-03-23T02:23:14.625Z,21.98
2023-03-23T02:24:13.616Z,21.99
2023-03-23T02:25:14.631Z,21.99
2023-03-23T02:26:14.612Z,21.92
2023-03-23T02:27:13.604Z,21.96
2023-03-23T02:28:14.603Z,21.96
2023-03-23T02:29:13.607Z,21.96
2023-03-23T02:30:13.602Z,21.94
2023-03-23T02:31:14.578Z,21.94
2023-03-23T02:32:13.555Z,21.96
2023-03-23T02:33:14.545Z,21.96
2023-03-23T02:34:14.557Z,21.95
2023-03-23T02:35:14.541Z,21.95
2023-03-23T02:36:14.535Z,21.95
2023-03-23T02:37:13.523Z,21.96
2023-03-23T02:38:14.533Z,21.95
2023-03-23T02:39:13.503Z,21.95
2023-03-23T02:40:13.509Z,21.92
2023-03-23T02:41:14.501Z,21.94
2023-03-23T02:42:14.637Z,21.92
2023-03-23T02:43:13.534Z,21.94
2023-03-23T02:44:14.559Z,21.94
2023-03-23T02:45:14.624Z,21.92
2023-03-23T02:46:14.702Z,21.94
2023-03-23T02:47:14.746Z,21.94
2023-03-23T02:48:14.792Z,21.94
2023-03-23T02:49:14.966Z,21.92
2023-03-23T02:50:14.912Z,21.92
2023-03-23T02:51:14.953Z,21.94
2023-03-23T02:52:15.023Z,21.95
2023-03-23T02:53:15.082Z,21.92
2023-03-23T02:54:15.127Z,21.94
2023-03-23T02:55:14.216Z,21.95
2023-03-23T02:56:14.232Z,21.92
2023-03-23T02:57:15.301Z,21.94
2023-03-23T02:58:14.342Z,21.94
2023-03-23T02:59:14.386Z,21.94
2023-03-23T03:00:15.460Z,21.94
2023-03-23T03:01:15.492Z,21.94
2023-03-23T03:02:14.555Z,21.92
2023-03-23T03:03:15.580Z,21.94
2023-03-23T03:04:15.612Z,21.94
2023-03-23T03:05:15.663Z,21.92
2023-03-23T03:06:15.681Z,21.92
2023-03-23T03:07:15.725Z,21.91
2023-03-23T03:08:15.786Z,21.91
2023-03-23T03:09:15.800Z,21.92
2023-03-23T03:10:17.305Z,21.89
2023-03-23T03:11:15.011Z,21.87
2023-03-23T03:12:16.057Z,21.85
2023-03-23T03:13:16.082Z,21.85
2023-03-23T03:14:15.139Z,21.85
2023-03-23T03:15:16.200Z,21.85
2023-03-23T03:16:15.235Z,21.88
2023-03-23T03:17:16.296Z,21.88
2023-03-23T03:18:16.285Z,21.85
2023-03-23T03:19:17.343Z,21.87
2023-03-23T03:20:16.314Z,21.85
2023-03-23T03:21:16.284Z,21.87
2023-03-23T03:22:16.288Z,21.88
2023-03-23T03:23:16.275Z,21.85
2023-03-23T03:24:16.275Z,21.87
2023-03-23T03:25:18.212Z,21.85
2023-03-23T03:26:16.277Z,21.88
2023-03-23T03:27:16.246Z,21.87
2023-03-23T03:28:15.238Z,21.85
2023-03-23T03:29:16.231Z,21.89
2023-03-23T03:30:16.230Z,21.85
2023-03-23T03:31:15.224Z,21.84
2023-03-23T03:32:15.216Z,21.84
2023-03-23T03:33:16.239Z,21.84
2023-03-23T03:34:16.202Z,21.82
2023-03-23T03:35:15.192Z,21.84
2023-03-23T03:36:16.232Z,21.82
2023-03-23T03:37:16.169Z,21.81
2023-03-23T03:38:16.177Z,21.84
2023-03-23T03:39:16.179Z,21.80
2023-03-23T03:40:16.166Z,21.82
2023-03-23T03:41:16.164Z,21.82
2023-03-23T03:42:15.146Z,21.82
2023-03-23T03:43:16.134Z,21.78
2023-03-23T03:44:15.129Z,21.80
2023-03-23T03:45:16.118Z,21.78
2023-03-23T03:46:16.111Z,21.81
2023-03-23T03:47:16.103Z,21.77
2023-03-23T03:48:16.112Z,21.80
2023-03-23T03:49:16.116Z,21.78
2023-03-23T03:50:15.111Z,21.78
2023-03-23T03:51:15.106Z,21.80
2023-03-23T03:52:16.065Z,21.78
2023-03-23T03:53:16.083Z,21.78
2023-03-23T03:54:16.063Z,21.78
2023-03-23T03:55:16.066Z,21.78
2023-03-23T03:56:16.079Z,21.81
2023-03-23T03:57:16.032Z,21.80
2023-03-23T03:58:16.025Z,21.81
2023-03-23T03:59:21.750Z,21.78
2023-03-23T04:00:16.019Z,21.78
2023-03-23T04:01:16.001Z,21.78
2023-03-23T04:02:16.007Z,21.80
2023-03-23T04:03:16.002Z,21.78
2023-03-23T04:04:16.002Z,21.78
2023-03-23T04:05:15.998Z,21.76
2023-03-23T04:06:14.968Z,21.78
2023-03-23T04:07:15.959Z,21.76
2023-03-23T04:08:14.957Z,21.78
2023-03-23T04:09:15.951Z,21.77
2023-03-23T04:10:15.961Z,21.81
2023-03-23T04:11:32.520Z,21.77
2023-03-23T04:12:15.916Z,21.76
2023-03-23T04:13:15.912Z,21.77
2023-03-23T04:14:14.904Z,21.76
2023-03-23T04:15:15.907Z,21.77
2023-03-23T04:16:15.907Z,21.77
2023-03-23T04:17:15.899Z,21.78
2023-03-23T04:18:14.881Z,21.78
2023-03-23T04:19:15.871Z,21.78
2023-03-23T04:20:15.881Z,21.78
2023-03-23T04:21:15.884Z,21.77
2023-03-23T04:22:15.850Z,21.77
2023-03-23T04:23:14.833Z,21.74
2023-03-23T04:24:23.119Z,21.77
2023-03-23T04:25:15.836Z,21.77
2023-03-23T04:26:15.813Z,21.74
2023-03-23T04:27:15.807Z,21.78
2023-03-23T04:28:15.794Z,21.77
2023-03-23T04:29:16.563Z,21.76
2023-03-23T04:30:15.801Z,21.73
2023-03-23T04:31:15.827Z,21.74
2023-03-23T04:32:15.832Z,21.76
2023-03-23T04:33:14.836Z,21.74
2023-03-23T04:34:15.828Z,21.76
2023-03-23T04:35:15.825Z,21.76
2023-03-23T04:36:15.856Z,21.76
2023-03-23T04:37:15.820Z,21.78
2023-03-23T04:38:15.785Z,21.76
2023-03-23T04:39:15.781Z,21.73
2023-03-23T04:40:15.762Z,21.76
2023-03-23T04:41:15.759Z,21.78
2023-03-23T04:42:15.757Z,21.77
2023-03-23T04:43:15.758Z,21.73
2023-03-23T04:44:15.739Z,21.77
2023-03-23T04:45:15.737Z,21.80
2023-03-23T04:46:15.723Z,21.77
2023-03-23T04:47:15.718Z,21.77
2023-03-23T04:48:14.707Z,21.80
2023-03-23T04:49:15.702Z,21.80
2023-03-23T04:50:15.713Z,21.78
2023-03-23T04:51:15.686Z,21.80
2023-03-23T04:52:15.678Z,21.81
2023-03-23T04:53:15.715Z,21.80
2023-03-23T04:54:15.668Z,21.81
2023-03-23T04:55:15.673Z,21.84
2023-03-23T04:56:15.659Z,21.81
2023-03-23T04:57:14.647Z,21.80
2023-03-23T04:58:15.655Z,21.80
2023-03-23T04:59:15.633Z,21.80
2023-03-23T05:00:14.647Z,21.78
2023-03-23T05:01:15.636Z,21.82
2023-03-23T05:02:15.611Z,21.82
2023-03-23T05:03:15.603Z,21.84
2023-03-23T05:04:15.596Z,21.82
2023-03-23T05:05:14.600Z,21.84
2023-03-23T05:06:15.580Z,21.85
2023-03-23T05:07:15.571Z,21.91
2023-03-23T05:08:15.564Z,21.89
2023-03-23T05:09:14.585Z,21.89
2023-03-23T05:10:15.557Z,21.91
2023-03-23T05:11:15.568Z,21.91
2023-03-23T05:12:15.547Z,21.91
2023-03-23T05:13:15.539Z,21.94
2023-03-23T05:14:15.542Z,21.92
2023-03-23T05:15:14.544Z,21.94
2023-03-23T05:16:15.513Z,21.95
2023-03-23T05:17:14.509Z,21.96
2023-03-23T05:18:15.516Z,21.98
2023-03-23T05:19:15.481Z,21.96
2023-03-23T05:20:14.489Z,21.98
2023-03-23T05:21:15.483Z,21.99
2023-03-23T05:22:15.465Z,21.99
2023-03-23T05:23:15.467Z,21.99
2023-03-23T05:24:15.469Z,21.99
2023-03-23T05:25:14.486Z,22.01
2023-03-23T05:26:15.452Z,21.99
2023-03-23T05:27:15.432Z,22.01
2023-03-23T05:28:15.433Z,22.01
2023-03-23T05:29:15.432Z,21.98
2023-03-23T05:30:15.425Z,21.99
2023-03-23T05:31:15.414Z,21.99
2023-03-23T05:32:15.404Z,22.02
2023-03-23T05:33:15.399Z,22.02
2023-03-23T05:34:15.398Z,22.01
2023-03-23T05:35:15.385Z,22.01
2023-03-23T05:36:15.417Z,22.02
2023-03-23T05:37:15.365Z,22.02
2023-03-23T05:38:15.362Z,22.05
2023-03-23T05:39:15.375Z,22.04
2023-03-23T05:40:15.383Z,22.04
2023-03-23T05:41:16.881Z,22.04
2023-03-23T05:42:14.492Z,22.05
2023-03-23T05:43:15.545Z,22.05
2023-03-23T05:44:15.617Z,22.05
2023-03-23T05:45:14.689Z,22.04
2023-03-23T05:46:15.741Z,22.06
2023-03-23T05:47:15.789Z,22.05
2023-03-23T05:48:15.853Z,22.02
2023-03-23T05:49:15.905Z,22.04
2023-03-23T05:50:15.957Z,22.05
2023-03-23T05:51:16.034Z,22.04
2023-03-23T05:52:16.103Z,22.02
2023-03-23T05:53:15.169Z,22.02
2023-03-23T05:54:16.223Z,22.02
2023-03-23T05:55:16.294Z,22.05
2023-03-23T05:56:15.340Z,22.04
2023-03-23T05:57:16.447Z,22.05
2023-03-23T05:58:16.459Z,22.04
2023-03-23T05:59:16.509Z,22.05
2023-03-23T06:00:16.579Z,22.08
2023-03-23T06:01:15.620Z,22.06
2023-03-23T06:02:16.686Z,22.06
2023-03-23T06:03:16.731Z,22.06
2023-03-23T06:04:16.799Z,22.08
2023-03-23T06:05:16.859Z,22.08
2023-03-23T06:06:16.935Z,22.12
2023-03-23T06:09:16.118Z,22.12
2023-03-23T06:10:17.168Z,22.13
2023-03-23T06:11:16.246Z,22.09
2023-03-23T06:12:17.326Z,22.11
2023-03-23T06:13:17.397Z,22.13
2023-03-23T06:14:17.447Z,22.15
2023-03-23T06:15:17.490Z,22.12
2023-03-23T06:16:17.588Z,22.17
2023-03-23T06:17:17.608Z,22.19
2023-03-23T06:18:16.678Z,22.19
2023-03-23T06:19:16.772Z,22.19
2023-03-23T06:20:17.811Z,22.20
2023-03-23T06:21:18.564Z,22.19
2023-03-23T06:22:17.934Z,22.22
2023-03-23T06:24:17.058Z,22.20
2023-03-23T06:25:18.089Z,22.16
2023-03-23T06:26:18.140Z,22.16
2023-03-23T06:27:18.168Z,22.17
2023-03-23T06:28:17.207Z,22.23
2023-03-23T06:29:18.282Z,22.29
2023-03-23T06:30:18.322Z,22.33
2023-03-23T06:31:18.363Z,22.37
2023-03-23T06:32:18.409Z,22.42
2023-03-23T06:33:19.845Z,22.43
2023-03-23T06:34:17.502Z,22.44
2023-03-23T06:35:18.501Z,22.47
2023-03-23T06:36:18.580Z,22.48
2023-03-23T06:37:18.577Z,22.51
2023-03-23T06:38:18.579Z,22.53
2023-03-23T06:40:17.540Z,22.53
2023-03-23T06:41:19.136Z,22.51
2023-03-23T06:43:17.514Z,22.50
2023-03-23T06:44:18.507Z,22.56
2023-03-23T06:45:18.518Z,22.64
2023-03-23T06:46:18.537Z,22.67
2023-03-23T06:47:17.493Z,22.72
2023-03-23T06:48:17.494Z,22.63
2023-03-23T06:49:17.478Z,21.91
2023-03-23T06:50:18.475Z,21.28
2023-03-23T06:54:17.443Z,20.21
2023-03-23T06:55:18.491Z,20.31
2023-03-23T06:57:17.467Z,20.36
2023-03-23T06:58:18.406Z,20.31
2023-03-23T06:59:18.417Z,20.29
2023-03-23T07:00:18.454Z,19.98
2023-03-23T07:01:18.496Z,20.29
2023-03-23T07:04:17.395Z,20.74
2023-03-23T07:05:17.365Z,21.06
2023-03-23T07:06:18.361Z,21.19
2023-03-23T07:07:18.368Z,21.43
2023-03-23T07:09:17.367Z,21.68
2023-03-23T07:11:17.344Z,21.95
2023-03-23T07:12:18.394Z,22.05
2023-03-23T07:13:18.436Z,22.16
2023-03-23T07:14:18.486Z,22.29
2023-03-23T07:15:17.495Z,22.32
2023-03-23T07:16:19.086Z,22.46
2023-03-23T07:17:18.664Z,22.58
2023-03-23T07:18:18.530Z,22.79
2023-03-23T07:19:18.534Z,22.94
2023-03-23T07:22:17.556Z,22.95
2023-03-23T07:23:18.575Z,23.03
2023-03-23T07:24:18.591Z,23.10
2023-03-23T07:26:17.694Z,23.17
2023-03-23T07:27:18.737Z,23.23
2023-03-23T07:28:18.816Z,23.29
2023-03-23T07:29:18.851Z,23.37
2023-03-23T07:33:18.131Z,23.46
2023-03-23T07:34:19.140Z,23.51
2023-03-23T07:35:19.178Z,23.49
2023-03-23T07:38:18.358Z,23.57
2023-03-23T07:39:19.385Z,23.57
2023-03-23T07:40:19.445Z,23.60
2023-03-23T07:42:18.566Z,23.58
2023-03-23T07:43:19.607Z,23.62
2023-03-23T07:46:18.727Z,23.57
2023-03-23T07:47:19.764Z,23.60
2023-03-23T07:49:18.765Z,23.54
2023-03-23T07:50:19.737Z,23.53
2023-03-23T07:51:19.730Z,23.41
2023-03-23T07:52:18.694Z,23.47
2023-03-23T07:53:20.154Z,23.40
2023-03-23T07:56:18.690Z,23.36
2023-03-23T07:57:19.665Z,23.37
2023-03-23T07:58:20.147Z,23.40
2023-03-23T07:59:18.671Z,23.51
2023-03-23T08:00:19.652Z,23.49
2023-03-23T08:01:19.645Z,23.53
2023-03-23T08:02:19.633Z,23.57
2023-03-23T08:03:19.655Z,23.64
2023-03-23T08:04:18.619Z,23.65
2023-03-23T08:05:19.637Z,23.68
2023-03-23T08:09:18.573Z,23.79
2023-03-23T08:10:19.597Z,23.79
2023-03-23T08:11:19.611Z,23.82
2023-03-23T08:12:19.551Z,23.86
2023-03-23T08:14:21.825Z,23.82
2023-03-23T08:15:19.542Z,23.89
2023-03-23T08:17:18.524Z,23.91
2023-03-23T08:18:19.541Z,23.85
2023-03-23T08:19:18.507Z,23.91
2023-03-23T08:20:18.535Z,23.98
2023-03-23T08:21:19.530Z,23.99
2023-03-23T08:28:18.461Z,24.19
2023-03-23T08:29:19.449Z,24.24
2023-03-23T08:30:19.459Z,24.23
2023-03-23T08:32:18.417Z,24.31
2023-03-23T08:33:19.441Z,24.34
2023-03-23T08:37:18.399Z,24.40
2023-03-23T08:39:18.364Z,24.40
2023-03-23T08:40:19.413Z,24.44
2023-03-23T08:46:18.313Z,24.53
2023-03-23T08:47:19.416Z,24.54
2023-03-23T08:48:19.651Z,24.55
2023-03-23T08:50:18.274Z,24.53
2023-03-23T08:51:19.281Z,24.61
2023-03-23T08:52:19.268Z,24.62
2023-03-23T08:58:18.247Z,24.41
2023-03-23T09:00:18.259Z,24.31
2023-03-23T09:02:18.208Z,24.27
2023-03-23T09:03:19.230Z,24.24
2023-03-23T09:04:19.245Z,24.23
2023-03-23T09:06:18.348Z,24.09
2023-03-23T09:07:19.364Z,24.08
2023-03-23T09:08:19.413Z,24.08
2023-03-23T09:09:19.470Z,24.09
2023-03-23T09:10:19.480Z,24.02
2023-03-23T09:11:19.504Z,23.98
2023-03-23T09:16:18.618Z,24.01
2023-03-23T09:17:19.645Z,24.01
2023-03-23T09:18:19.690Z,23.95
2023-03-23T09:19:19.755Z,23.95
2023-03-23T09:20:19.767Z,23.95
2023-03-23T09:21:19.821Z,23.92
2023-03-23T09:22:19.871Z,23.91
2023-03-23T09:23:19.892Z,23.93
2023-03-23T09:24:19.929Z,23.93
2023-03-23T09:25:20.029Z,23.92
2023-03-23T09:29:19.135Z,23.92
2023-03-23T09:30:20.184Z,23.91
2023-03-23T09:31:20.904Z,23.91
2023-03-23T09:33:19.349Z,23.88
2023-03-23T09:34:20.386Z,23.91
2023-03-23T09:35:20.469Z,23.93
2023-03-23T09:36:20.528Z,23.92
2023-03-23T09:37:20.572Z,23.89
2023-03-23T09:38:20.617Z,23.86
2023-03-23T09:39:20.649Z,23.81
2023-03-23T09:40:20.727Z,23.77
2023-03-23T09:44:19.896Z,23.61
2023-03-23T09:45:20.960Z,23.57
2023-03-23T09:46:21.012Z,23.64
2023-03-23T09:47:21.096Z,23.61
2023-03-23T09:48:21.130Z,23.46
2023-03-23T09:49:21.226Z,23.56
2023-03-23T09:50:21.245Z,23.50
2023-03-23T09:51:21.305Z,23.41
2023-03-23T09:52:21.343Z,23.26
2023-03-23T09:55:20.420Z,23.26
2023-03-23T09:56:21.463Z,23.06
2023-03-23T09:57:21.479Z,23.08
2023-03-23T10:02:20.644Z,23.05
2023-03-23T10:03:20.622Z,23.08
2023-03-23T10:04:20.579Z,23.16
2023-03-23T10:06:20.588Z,23.33
2023-03-23T10:07:21.614Z,23.30
2023-03-23T10:08:21.691Z,23.27
2023-03-23T10:09:21.622Z,23.26
2023-03-23T10:10:21.645Z,23.26
2023-03-23T10:11:21.687Z,23.29
2023-03-23T10:13:20.772Z,23.34
2023-03-23T10:14:21.736Z,23.32
2023-03-23T10:15:21.764Z,23.37
2023-03-23T10:22:21.042Z,23.43
2023-03-23T10:23:22.065Z,23.44
2023-03-23T10:24:22.337Z,23.43
2023-03-23T10:26:21.228Z,23.61
2023-03-23T10:27:23.302Z,23.72
2023-03-23T10:31:21.446Z,23.81
2023-03-23T10:32:22.508Z,23.96
2023-03-23T10:33:22.556Z,23.88
2023-03-23T10:34:22.745Z,23.88
2023-03-23T10:38:21.832Z,23.92
2023-03-23T10:39:22.880Z,23.93
2023-03-23T10:40:22.930Z,24.08
2023-03-23T10:41:23.540Z,24.06
2023-03-23T10:42:23.023Z,24.08
2023-03-23T10:43:23.102Z,24.05
2023-03-23T10:44:23.136Z,24.27
2023-03-23T10:45:23.177Z,24.17
2023-03-23T10:48:22.206Z,23.96
2023-03-23T10:49:23.338Z,23.78
2023-03-23T10:54:22.297Z,24.01
2023-03-23T10:55:23.344Z,24.10
2023-03-23T10:57:22.339Z,24.21
2023-03-23T10:58:23.359Z,24.21
2023-03-23T10:59:23.386Z,24.08
2023-03-23T11:00:23.676Z,24.12
2023-03-23T11:04:22.354Z,24.34
2023-03-23T11:05:24.869Z,24.41
2023-03-23T11:06:23.441Z,24.50
2023-03-23T11:11:22.482Z,24.50
2023-03-23T11:12:23.462Z,24.55
2023-03-23T11:13:23.442Z,24.64
2023-03-23T11:14:23.442Z,24.64
2023-03-23T11:17:22.429Z,24.65
2023-03-23T11:18:23.428Z,24.67
2023-03-23T11:21:22.466Z,24.53
2023-03-23T11:22:23.516Z,24.54
2023-03-23T11:24:22.550Z,24.54
2023-03-23T11:25:23.530Z,24.67
2023-03-23T11:26:23.531Z,24.77
2023-03-23T11:27:23.519Z,24.77
2023-03-23T11:28:23.591Z,24.64
2023-03-23T11:29:22.654Z,24.40
2023-03-23T11:30:23.661Z,24.64
2023-03-23T11:31:23.672Z,24.70
2023-03-23T11:32:23.712Z,24.60
2023-03-23T11:33:25.715Z,24.46
2023-03-23T11:35:22.731Z,24.36
2023-03-23T11:36:23.690Z,24.48
2023-03-23T11:40:22.647Z,24.44
2023-03-23T11:41:22.667Z,24.57
2023-03-23T11:42:23.648Z,24.50
2023-03-23T11:45:22.610Z,24.48
2023-03-23T11:46:23.612Z,24.55
2023-03-23T11:47:23.636Z,24.51
2023-03-23T11:50:22.596Z,24.51
2023-03-23T11:54:22.562Z,24.55
2023-03-23T11:55:23.587Z,24.58
2023-03-23T11:56:23.549Z,24.58
2023-03-23T11:57:23.549Z,24.55
2023-03-23T11:58:23.546Z,24.62
2023-03-23T12:01:22.531Z,24.60
2023-03-23T12:02:23.517Z,24.65
2023-03-23T12:04:22.550Z,24.68
2023-03-23T12:07:23.470Z,24.64
2023-03-23T12:08:23.470Z,24.70
2023-03-23T12:09:23.460Z,24.64
2023-03-23T12:14:25.071Z,24.62
2023-03-23T12:15:22.646Z,24.67
2023-03-23T12:16:23.691Z,24.62
2023-03-23T12:17:23.661Z,24.72
2023-03-23T12:18:23.729Z,24.70
2023-03-23T12:21:22.842Z,24.61
2023-03-23T12:22:23.854Z,24.65
2023-03-23T12:23:23.861Z,24.68
2023-03-23T12:24:23.915Z,24.67
2023-03-23T12:25:22.944Z,24.61
2023-03-23T12:26:23.949Z,24.54
2023-03-23T12:27:23.966Z,24.58
2023-03-23T12:28:24.008Z,24.57
2023-03-23T12:29:24.053Z,24.58
2023-03-23T12:30:24.075Z,24.61
2023-03-23T12:32:23.108Z,24.58
2023-03-23T12:33:23.120Z,24.51
2023-03-23T12:34:24.143Z,24.57
2023-03-23T12:35:24.454Z,24.48
2023-03-23T12:36:24.241Z,24.44
2023-03-23T12:37:24.264Z,24.47
2023-03-23T12:41:23.177Z,24.46
2023-03-23T12:42:24.210Z,24.53
2023-03-23T12:44:23.240Z,24.54
2023-03-23T12:45:24.321Z,24.46
2023-03-23T12:47:23.270Z,24.41
2023-03-23T12:48:24.246Z,24.46
2023-03-23T12:49:23.265Z,24.41
2023-03-23T12:50:24.265Z,24.44
2023-03-23T12:52:23.306Z,24.46
2023-03-23T12:53:24.299Z,24.44
2023-03-23T13:00:23.326Z,24.50
2023-03-23T13:01:24.332Z,24.50
2023-03-23T13:02:24.386Z,24.51
2023-03-23T13:03:24.375Z,24.58
2023-03-23T13:04:24.427Z,24.58
2023-03-23T13:05:24.420Z,24.58
2023-03-23T13:06:24.471Z,24.55
2023-03-23T13:08:23.465Z,24.58
2023-03-23T13:09:24.406Z,24.57
2023-03-23T13:10:24.466Z,24.53
2023-03-23T13:11:24.401Z,24.61
2023-03-23T13:12:24.413Z,24.50
2023-03-23T13:16:23.390Z,24.41
2023-03-23T13:17:24.366Z,24.47
2023-03-23T13:18:24.356Z,24.41
2023-03-23T13:19:24.349Z,24.38
2023-03-23T13:20:24.355Z,24.38
2023-03-23T13:24:23.341Z,24.44
2023-03-23T13:25:24.314Z,24.26
2023-03-23T13:27:23.298Z,24.24
2023-03-23T13:28:24.309Z,24.17
2023-03-23T13:29:24.304Z,24.10
2023-03-23T13:31:23.269Z,24.19
2023-03-23T13:32:24.274Z,24.23
2023-03-23T13:33:24.248Z,24.23
2023-03-23T13:34:24.267Z,24.21
2023-03-23T13:36:23.281Z,24.23
2023-03-23T13:37:24.245Z,24.29
2023-03-23T13:38:24.226Z,24.37
2023-03-23T13:39:23.232Z,24.37
2023-03-23T13:40:24.251Z,24.38
2023-03-23T13:41:24.209Z,24.34
2023-03-23T13:44:23.189Z,24.34
2023-03-23T13:45:24.186Z,24.37
2023-03-23T13:49:23.139Z,24.34
2023-03-23T13:50:24.177Z,24.33
2023-03-23T13:52:23.121Z,24.37
2023-03-23T13:53:23.227Z,24.30
2023-03-23T13:54:24.158Z,24.31
2023-03-23T13:58:23.090Z,24.30
2023-03-23T14:00:23.083Z,24.33
2023-03-23T14:01:24.052Z,24.36
2023-03-23T14:05:23.051Z,24.36
2023-03-23T14:06:24.034Z,24.37
2023-03-23T14:07:24.013Z,24.37
2023-03-23T14:08:24.002Z,24.33
2023-03-23T14:11:22.995Z,24.36
2023-03-23T14:12:24.004Z,24.34
2023-03-23T14:14:22.968Z,24.31
2023-03-23T14:15:23.977Z,24.37
2023-03-23T14:16:23.995Z,24.31
2023-03-23T14:17:24.006Z,24.29
2023-03-23T14:18:24.040Z,24.31
2023-03-23T14:21:23.107Z,24.34
2023-03-23T14:22:24.155Z,24.27
2023-03-23T14:23:24.152Z,24.30
2023-03-23T14:24:24.171Z,24.34
2023-03-23T14:30:23.407Z,24.33
2023-03-23T14:31:24.420Z,24.34
2023-03-23T14:32:24.479Z,24.26
2023-03-23T14:33:23.498Z,24.26
2023-03-23T14:34:24.527Z,24.26
2023-03-23T14:35:24.580Z,24.26
2023-03-23T14:36:24.589Z,24.23
2023-03-23T14:37:24.627Z,24.20
2023-03-23T14:38:24.673Z,24.24
2023-03-23T14:39:24.700Z,24.21
2023-03-23T14:40:24.763Z,24.19
2023-03-23T14:41:24.772Z,24.21
2023-03-23T14:42:24.809Z,24.20
2023-03-23T14:43:24.835Z,24.19
2023-03-23T14:44:24.912Z,24.17
2023-03-23T14:47:23.942Z,24.16
2023-03-23T14:48:24.965Z,24.20
2023-03-23T14:49:25.030Z,24.15
2023-03-23T14:50:25.077Z,24.12
2023-03-23T14:52:24.133Z,24.17
2023-03-23T14:56:24.264Z,24.15
2023-03-23T14:57:25.296Z,24.19
2023-03-23T14:58:25.322Z,24.16
2023-03-23T14:59:25.346Z,24.12
2023-03-23T15:00:25.454Z,24.15
2023-03-23T15:02:24.440Z,24.15
2023-03-23T15:06:24.585Z,24.10
2023-03-23T15:07:25.688Z,24.09
2023-03-23T15:09:24.682Z,24.17
2023-03-23T15:13:24.848Z,24.10
2023-03-23T15:14:25.908Z,24.12
2023-03-23T15:15:25.969Z,24.12
2023-03-23T15:16:25.989Z,24.12
2023-03-23T15:17:26.008Z,24.16
2023-03-23T15:18:26.052Z,24.12
2023-03-23T15:19:26.087Z,24.10
2023-03-23T15:20:26.154Z,24.09
2023-03-23T15:24:25.329Z,23.99
2023-03-23T15:25:26.329Z,24.03
2023-03-23T15:26:26.351Z,24.06
2023-03-23T15:27:25.389Z,24.08
2023-03-23T15:32:25.655Z,24.01
2023-03-23T15:33:28.849Z,24.03
2023-03-23T15:34:26.627Z,23.99
2023-03-23T15:39:25.621Z,23.99
2023-03-23T15:40:25.573Z,23.95
2023-03-23T15:41:26.570Z,23.98
2023-03-23T15:44:25.556Z,23.95
2023-03-23T15:46:25.539Z,23.99
2023-03-23T15:47:25.554Z,24.02
2023-03-23T15:48:26.553Z,24.01
2023-03-23T15:49:26.499Z,24.05
2023-03-23T15:50:26.516Z,23.99
2023-03-23T15:54:25.476Z,23.98
2023-03-23T15:55:26.455Z,23.98
2023-03-23T15:57:25.447Z,24.01
2023-03-23T15:58:25.473Z,23.96
2023-03-23T15:59:25.536Z,24.01
2023-03-23T16:00:25.606Z,24.01
2023-03-23T16:01:26.717Z,24.02
2023-03-23T16:02:26.826Z,24.06
2023-03-23T16:05:25.876Z,23.95
2023-03-23T16:06:26.951Z,23.99
2023-03-23T16:07:26.997Z,23.96
2023-03-23T16:08:27.080Z,24.01
2023-03-23T16:09:27.156Z,23.98
2023-03-23T16:10:27.164Z,23.99
2023-03-23T16:11:27.230Z,23.98
2023-03-23T16:12:27.260Z,23.96
2023-03-23T16:17:26.496Z,23.91
2023-03-23T16:18:27.538Z,23.93
2023-03-23T16:19:27.584Z,23.89
2023-03-23T16:20:27.656Z,23.93
2023-03-23T16:21:26.649Z,23.91
2023-03-23T16:22:27.699Z,23.89
2023-03-23T16:23:27.715Z,23.93
2023-03-23T16:24:27.718Z,23.96
2023-03-23T16:25:27.744Z,23.93
2023-03-23T16:26:27.760Z,23.95